createdAt,value
2022-12-15T00:09:55.836Z,0.28
2022-12-15T00:15:14.704Z,0.28
2022-12-15T00:25:54.009Z,0.27
2022-12-15T00:41:53.213Z,0.25
2022-12-15T00:52:32.264Z,0.28
2022-12-15T00:57:51.412Z,0.28
2022-12-15T01:03:10.914Z,0.29
2022-12-15T01:08:30.200Z,0.29
2022-12-15T01:24:28.306Z,0.28
2022-12-15T01:29:47.875Z,0.28
2022-12-15T01:35:06.714Z,0.27
2022-12-15T01:40:26.363Z,0.29
2022-12-15T01:51:04.587Z,0.27
2022-12-15T02:07:03.185Z,0.31
2022-12-15T02:17:41.887Z,0.31
2022-12-15T02:23:01.551Z,0.29
2022-12-15T02:33:40.678Z,0.28
2022-12-15T02:38:59.879Z,0.28
2022-12-15T02:44:18.939Z,0.29
2022-12-15T02:49:38.481Z,0.29
2022-12-15T03:05:36.551Z,0.29
2022-12-15T03:16:15.910Z,0.28
2022-12-15T03:21:35.604Z,0.27
2022-12-15T03:32:14.567Z,0.29
2022-12-15T03:42:53.445Z,0.29
2022-12-15T03:53:32.697Z,0.27
2022-12-15T03:58:52.073Z,0.28
2022-12-15T04:04:11.302Z,0.29
2022-12-15T04:09:30.515Z,0.29
2022-12-15T04:25:29.057Z,0.29
2022-12-15T04:36:07.518Z,0.28
2022-12-15T04:41:26.511Z,0.28
2022-12-15T04:52:05.106Z,0.29
2022-12-15T05:02:43.984Z,0.31
2022-12-15T05:08:03.470Z,0.29
2022-12-15T05:18:41.886Z,0.31
2022-12-15T05:24:01.403Z,0.28
2022-12-15T05:50:39.638Z,0.28
2022-12-15T06:01:17.293Z,0.29
2022-12-15T06:11:55.950Z,0.29
2022-12-15T06:17:14.776Z,0.29
2022-12-15T06:22:33.671Z,0.29
2022-12-15T06:33:11.428Z,0.29
2022-12-15T06:43:49.844Z,0.27
2022-12-15T07:16:12.710Z,0.27
2022-12-15T07:32:09.729Z,0.28
2022-12-15T07:58:46.611Z,0.28
2022-12-15T08:52:01.434Z,0.24
2022-12-15T08:57:20.069Z,0.24
2022-12-15T09:13:18.090Z,0.24
2022-12-15T09:23:57.016Z,0.28
2022-12-15T09:34:35.872Z,0.28
2022-12-15T09:50:41.590Z,0.29
2022-12-15T10:01:11.125Z,0.29
2022-12-15T10:06:33.032Z,0.31
2022-12-15T10:17:08.924Z,0.31
2022-12-15T10:38:24.870Z,0.31
2022-12-15T10:49:12.629Z,0.31
2022-12-15T11:31:39.844Z,0.32
2022-12-15T11:58:15.886Z,0.32
2022-12-15T12:03:35.071Z,0.32
2022-12-15T12:08:54.159Z,0.36
2022-12-15T12:46:09.272Z,0.36
2022-12-15T13:02:06.313Z,0.36
2022-12-15T13:34:02.292Z,0.36
2022-12-15T13:39:21.422Z,0.36
2022-12-15T13:50:02.015Z,0.32
2022-12-15T13:55:24.169Z,0.34
2022-12-15T14:05:58.535Z,0.31
2022-12-15T14:16:36.384Z,0.32
2022-12-15T14:21:55.489Z,0.32
2022-12-15T14:27:14.854Z,0.32
2022-12-15T14:32:34.355Z,0.34
2022-12-15T14:37:53.890Z,0.34
2022-12-15T14:48:41.658Z,0.36
2022-12-15T15:04:31.282Z,0.36
2022-12-15T15:15:10.619Z,0.36
2022-12-15T15:20:29.604Z,0.34
2022-12-15T15:31:08.434Z,0.36
2022-12-15T15:36:28.054Z,0.34
2022-12-15T15:47:06.817Z,0.32
2022-12-15T15:57:46.073Z,0.31
2022-12-15T16:03:05.906Z,0.32
2022-12-15T16:13:45.094Z,0.36
2022-12-15T16:29:43.341Z,0.34
2022-12-15T16:40:21.434Z,0.34
2022-12-15T16:45:40.522Z,0.34
2022-12-15T16:56:18.385Z,0.31
2022-12-15T17:12:15.508Z,0.34
2022-12-15T17:17:34.409Z,0.32
2022-12-15T17:22:53.391Z,0.36
2022-12-15T17:28:12.410Z,0.31
2022-12-15T17:33:32.367Z,0.32
2022-12-15T17:38:51.144Z,0.32
2022-12-15T17:44:32.130Z,0.34
2022-12-15T17:49:34.922Z,0.32
2022-12-15T18:00:07.709Z,0.34
2022-12-15T18:05:26.358Z,0.36
2022-12-15T18:16:04.839Z,0.34
2022-12-15T18:32:02.401Z,0.32
2022-12-15T18:42:41.824Z,0.32
2022-12-15T18:48:01.313Z,0.32
2022-12-15T18:58:39.360Z,0.31
2022-12-15T19:03:58.732Z,0.34
2022-12-15T19:10:32.942Z,0.32
2022-12-15T19:14:39.204Z,0.34
2022-12-15T19:19:58.815Z,0.32
2022-12-15T19:25:21.890Z,0.32
2022-12-15T19:30:41.852Z,0.31
2022-12-15T19:41:15.794Z,0.32
2022-12-15T19:57:14.404Z,0.31
2022-12-15T20:07:52.709Z,0.34
2022-12-15T20:13:11.726Z,0.31
2022-12-15T20:18:31.754Z,0.29
2022-12-15T20:23:50.935Z,0.31
2022-12-15T20:29:09.870Z,0.31
2022-12-15T20:39:50.343Z,0.32
2022-12-15T20:50:26.908Z,0.31
2022-12-15T20:55:46.607Z,0.31
2022-12-15T21:06:24.714Z,0.32
2022-12-15T21:11:43.718Z,0.32
2022-12-15T21:22:22.778Z,0.32
2022-12-15T21:33:01.677Z,0.32
2022-12-15T21:38:20.904Z,0.34
2022-12-15T21:46:54.648Z,0.34
2022-12-15T21:51:09.402Z,0.31
2022-12-15T21:54:16.853Z,0.34
2022-12-15T22:04:55.573Z,0.32
2022-12-15T22:16:49.356Z,0.31
2022-12-15T22:20:55.307Z,0.32
2022-12-15T22:31:33.912Z,0.32
2022-12-15T22:42:11.631Z,0.34
2022-12-15T22:47:30.808Z,0.34
2022-12-15T22:54:04.936Z,0.34
2022-12-15T23:03:30.120Z,0.34
2022-12-15T23:14:08.796Z,0.32
2022-12-15T23:30:04.181Z,0.32
2022-12-15T23:41:57.784Z,0.36
2022-12-15T23:46:03.490Z,0.32
2022-12-15T23:51:23.071Z,0.32
2022-12-15T23:56:41.779Z,0.34
